sensor_id;sensor_type;location;lat;lon;timestamp;pressure;altitude;pressure_sealevel;temperature;humidity
76627;BME280;65519;53.230;10.390;2023-04-03T00:00:03;102952.97;;;2.35;69.99
76627;BME280;65519;53.230;10.390;2023-04-03T00:02:28;102959.91;;;2.38;70.67
76627;BME280;65519;53.230;10.390;2023-04-03T00:04:54;102959.38;;;2.08;71.08
76627;BME280;65519;53.230;10.390;2023-04-03T00:07:19;102951.69;;;2.13;71.28
76627;BME280;65519;53.230;10.390;2023-04-03T00:09:44;102964.44;;;2.11;71.02
76627;BME280;65519;53.230;10.390;2023-04-03T00:12:10;102959.00;;;2.03;71.07
76627;BME280;65519;53.230;10.390;2023-04-03T00:14:36;102958.47;;;2.26;70.34
76627;BME280;65519;53.230;10.390;2023-04-03T00:17:01;102961.94;;;2.18;71.06
76627;BME280;65519;53.230;10.390;2023-04-03T00:19:26;102965.16;;;2.22;70.89
76627;BME280;65519;53.230;10.390;2023-04-03T00:21:51;102959.75;;;2.13;70.75
76627;BME280;65519;53.230;10.390;2023-04-03T00:24:18;102963.13;;;2.15;70.26
76627;BME280;65519;53.230;10.390;2023-04-03T00:26:44;102963.28;;;2.14;70.43
76627;BME280;65519;53.230;10.390;2023-04-03T00:29:09;102967.22;;;2.02;71.16
76627;BME280;65519;53.230;10.390;2023-04-03T00:31:35;102968.16;;;2.18;70.84
76627;BME280;65519;53.230;10.390;2023-04-03T00:34:00;102968.88;;;1.95;71.09
76627;BME280;65519;53.230;10.390;2023-04-03T00:36:26;102975.75;;;1.97;71.19
76627;BME280;65519;53.230;10.390;2023-04-03T00:38:51;102972.59;;;2.02;70.95
76627;BME280;65519;53.230;10.390;2023-04-03T00:41:17;102981.38;;;1.86;71.27
76627;BME280;65519;53.230;10.390;2023-04-03T00:43:42;102976.34;;;1.83;71.49
76627;BME280;65519;53.230;10.390;2023-04-03T00:46:07;102979.53;;;1.87;71.41
76627;BME280;65519;53.230;10.390;2023-04-03T00:48:40;102972.56;;;1.94;70.94
76627;BME280;65519;53.230;10.390;2023-04-03T00:51:10;102979.78;;;1.93;71.56
76627;BME280;65519;53.230;10.390;2023-04-03T00:54:04;102973.47;;;2.02;70.90
76627;BME280;65519;53.230;10.390;2023-04-03T00:56:29;102978.38;;;1.89;71.36
76627;BME280;65519;53.230;10.390;2023-04-03T00:59:08;102977.41;;;1.90;71.88
76627;BME280;65519;53.230;10.390;2023-04-03T01:01:35;102976.09;;;1.94;71.46
76627;BME280;65519;53.230;10.390;2023-04-03T01:04:02;102985.06;;;1.85;71.57
76627;BME280;65519;53.230;10.390;2023-04-03T01:06:30;102983.81;;;1.97;71.73
76627;BME280;65519;53.230;10.390;2023-04-03T01:08:58;102980.13;;;1.98;71.26
76627;BME280;65519;53.230;10.390;2023-04-03T01:11:24;102983.47;;;1.92;70.97
76627;BME280;65519;53.230;10.390;2023-04-03T01:13:50;102985.25;;;2.09;70.80
76627;BME280;65519;53.230;10.390;2023-04-03T01:16:15;102988.50;;;1.95;70.83
76627;BME280;65519;53.230;10.390;2023-04-03T01:18:42;102983.38;;;2.02;70.77
76627;BME280;65519;53.230;10.390;2023-04-03T01:26:51;102991.78;;;1.81;70.89
76627;BME280;65519;53.230;10.390;2023-04-03T01:29:16;102985.72;;;1.79;71.13
76627;BME280;65519;53.230;10.390;2023-04-03T01:31:46;102991.28;;;1.86;70.97
76627;BME280;65519;53.230;10.390;2023-04-03T01:34:12;102994.16;;;1.66;71.93
76627;BME280;65519;53.230;10.390;2023-04-03T01:36:37;102992.81;;;1.62;71.35
76627;BME280;65519;53.230;10.390;2023-04-03T01:39:03;102994.25;;;1.57;71.47
76627;BME280;65519;53.230;10.390;2023-04-03T01:41:28;102997.31;;;1.62;71.72
76627;BME280;65519;53.230;10.390;2023-04-03T01:43:54;102996.22;;;1.55;72.27
76627;BME280;65519;53.230;10.390;2023-04-03T01:46:21;102996.22;;;1.55;72.07
76627;BME280;65519;53.230;10.390;2023-04-03T01:48:46;102988.41;;;1.43;71.91
76627;BME280;65519;53.230;10.390;2023-04-03T01:51:12;103002.16;;;1.58;71.51
76627;BME280;65519;53.230;10.390;2023-04-03T01:53:38;103004.28;;;1.55;72.43
76627;BME280;65519;53.230;10.390;2023-04-03T01:56:03;103006.34;;;1.43;72.36
76627;BME280;65519;53.230;10.390;2023-04-03T01:58:29;102999.63;;;1.57;71.84
76627;BME280;65519;53.230;10.390;2023-04-03T02:00:54;103000.00;;;1.44;72.03
76627;BME280;65519;53.230;10.390;2023-04-03T02:03:20;103004.53;;;1.43;72.08
76627;BME280;65519;53.230;10.390;2023-04-03T02:05:46;102993.00;;;1.33;72.24
76627;BME280;65519;53.230;10.390;2023-04-03T02:08:11;102998.38;;;1.33;72.66
76627;BME280;65519;53.230;10.390;2023-04-03T02:10:38;103005.44;;;1.34;72.82
76627;BME280;65519;53.230;10.390;2023-04-03T02:13:03;102998.66;;;1.30;73.04
76627;BME280;65519;53.230;10.390;2023-04-03T02:15:29;103006.44;;;1.33;72.59
76627;BME280;65519;53.230;10.390;2023-04-03T02:17:54;102993.22;;;1.22;72.88
76627;BME280;65519;53.230;10.390;2023-04-03T02:20:20;102992.69;;;1.19;73.16
76627;BME280;65519;53.230;10.390;2023-04-03T02:22:46;102997.38;;;1.34;73.11
76627;BME280;65519;53.230;10.390;2023-04-03T02:25:11;102990.47;;;1.32;73.03
76627;BME280;65519;53.230;10.390;2023-04-03T02:27:41;102998.00;;;1.28;72.62
76627;BME280;65519;53.230;10.390;2023-04-03T02:30:09;102990.81;;;1.19;72.99
76627;BME280;65519;53.230;10.390;2023-04-03T02:32:35;103004.50;;;1.08;73.68
76627;BME280;65519;53.230;10.390;2023-04-03T02:35:01;103001.75;;;1.18;73.10
76627;BME280;65519;53.230;10.390;2023-04-03T02:37:26;103005.84;;;1.12;73.82
76627;BME280;65519;53.230;10.390;2023-04-03T02:39:52;103000.97;;;1.25;72.72
76627;BME280;65519;53.230;10.390;2023-04-03T02:42:17;103002.66;;;1.26;73.42
76627;BME280;65519;53.230;10.390;2023-04-03T02:44:42;102997.50;;;1.15;73.16
76627;BME280;65519;53.230;10.390;2023-04-03T02:47:08;103003.25;;;1.20;73.80
76627;BME280;65519;53.230;10.390;2023-04-03T02:49:33;103003.31;;;1.10;73.45
76627;BME280;65519;53.230;10.390;2023-04-03T02:51:58;103000.91;;;1.17;73.87
76627;BME280;65519;53.230;10.390;2023-04-03T02:54:24;103010.53;;;1.10;74.08
76627;BME280;65519;53.230;10.390;2023-04-03T02:56:52;103004.16;;;1.11;73.66
76627;BME280;65519;53.230;10.390;2023-04-03T02:59:18;103008.25;;;1.15;73.81
76627;BME280;65519;53.230;10.390;2023-04-03T03:01:43;103015.53;;;1.05;73.71
76627;BME280;65519;53.230;10.390;2023-04-03T03:04:08;103006.75;;;1.03;73.50
76627;BME280;65519;53.230;10.390;2023-04-03T03:06:34;103013.47;;;1.17;73.43
76627;BME280;65519;53.230;10.390;2023-04-03T03:08:59;103011.91;;;0.96;73.83
76627;BME280;65519;53.230;10.390;2023-04-03T03:11:25;103012.13;;;1.03;73.72
76627;BME280;65519;53.230;10.390;2023-04-03T03:13:51;103006.13;;;0.91;73.82
76627;BME280;65519;53.230;10.390;2023-04-03T03:16:16;103009.66;;;0.92;73.66
76627;BME280;65519;53.230;10.390;2023-04-03T03:18:42;103005.38;;;0.99;73.84
76627;BME280;65519;53.230;10.390;2023-04-03T03:21:09;103013.31;;;0.91;73.24
76627;BME280;65519;53.230;10.390;2023-04-03T03:23:34;103018.50;;;1.02;73.86
76627;BME280;65519;53.230;10.390;2023-04-03T03:26:03;103009.94;;;0.89;73.75
76627;BME280;65519;53.230;10.390;2023-04-03T03:28:29;103009.78;;;0.90;73.84
76627;BME280;65519;53.230;10.390;2023-04-03T03:30:54;103008.81;;;0.91;74.16
76627;BME280;65519;53.230;10.390;2023-04-03T03:33:20;103010.22;;;0.95;73.11
76627;BME280;65519;53.230;10.390;2023-04-03T03:35:45;103010.25;;;0.86;73.61
76627;BME280;65519;53.230;10.390;2023-04-03T03:38:11;103010.09;;;0.87;73.86
76627;BME280;65519;53.230;10.390;2023-04-03T03:40:36;103008.81;;;0.91;73.14
76627;BME280;65519;53.230;10.390;2023-04-03T03:43:02;103005.22;;;0.73;73.53
76627;BME280;65519;53.230;10.390;2023-04-03T03:45:27;103006.03;;;0.83;73.45
76627;BME280;65519;53.230;10.390;2023-04-03T03:47:53;102997.13;;;0.83;73.56
76627;BME280;65519;53.230;10.390;2023-04-03T03:50:18;103000.75;;;0.54;74.15
76627;BME280;65519;53.230;10.390;2023-04-03T03:52:43;103001.88;;;0.61;74.26
76627;BME280;65519;53.230;10.390;2023-04-03T03:55:09;102999.91;;;0.63;73.69
76627;BME280;65519;53.230;10.390;2023-04-03T03:57:35;102999.19;;;0.61;73.67
76627;BME280;65519;53.230;10.390;2023-04-03T04:00:00;103008.94;;;0.62;73.95
76627;BME280;65519;53.230;10.390;2023-04-03T04:02:26;103006.63;;;0.67;73.45
76627;BME280;65519;53.230;10.390;2023-04-03T04:04:51;103001.88;;;0.61;74.25
76627;BME280;65519;53.230;10.390;2023-04-03T04:07:17;103005.72;;;0.49;74.35
76627;BME280;65519;53.230;10.390;2023-04-03T04:09:42;103014.88;;;0.56;74.41
76627;BME280;65519;53.230;10.390;2023-04-03T04:12:07;103009.22;;;0.59;74.37
76627;BME280;65519;53.230;10.390;2023-04-03T04:14:33;103023.34;;;0.61;74.39
76627;BME280;65519;53.230;10.390;2023-04-03T04:16:58;103017.00;;;0.62;74.02
76627;BME280;65519;53.230;10.390;2023-04-03T04:19:23;103018.28;;;0.49;74.42
76627;BME280;65519;53.230;10.390;2023-04-03T04:21:49;103022.03;;;0.65;74.06
76627;BME280;65519;53.230;10.390;2023-04-03T04:24:15;103018.16;;;0.50;74.46
76627;BME280;65519;53.230;10.390;2023-04-03T04:26:40;103022.69;;;0.50;74.41
76627;BME280;65519;53.230;10.390;2023-04-03T04:29:06;103028.47;;;0.45;74.36
76627;BME280;65519;53.230;10.390;2023-04-03T04:31:31;103030.16;;;0.46;74.56
76627;BME280;65519;53.230;10.390;2023-04-03T04:33:56;103021.41;;;0.44;74.77
76627;BME280;65519;53.230;10.390;2023-04-03T04:36:22;103023.94;;;0.46;74.29
76627;BME280;65519;53.230;10.390;2023-04-03T04:38:47;103031.31;;;0.34;74.81
76627;BME280;65519;53.230;10.390;2023-04-03T04:41:12;103042.88;;;0.44;74.72
76627;BME280;65519;53.230;10.390;2023-04-03T04:43:38;103039.63;;;0.50;74.03
76627;BME280;65519;53.230;10.390;2023-04-03T04:46:05;103038.31;;;0.64;73.60
76627;BME280;65519;53.230;10.390;2023-04-03T04:48:31;103036.41;;;0.84;73.17
76627;BME280;65519;53.230;10.390;2023-04-03T04:50:56;103047.84;;;0.76;73.50
76627;BME280;65519;53.230;10.390;2023-04-03T04:53:22;103046.66;;;0.61;73.36
76627;BME280;65519;53.230;10.390;2023-04-03T04:55:47;103040.50;;;0.78;73.78
76627;BME280;65519;53.230;10.390;2023-04-03T04:58:13;103052.00;;;0.70;73.83
76627;BME280;65519;53.230;10.390;2023-04-03T05:00:38;103053.41;;;0.75;73.41
76627;BME280;65519;53.230;10.390;2023-04-03T05:03:04;103052.28;;;0.67;73.09
76627;BME280;65519;53.230;10.390;2023-04-03T05:05:29;103057.25;;;0.62;73.72
76627;BME280;65519;53.230;10.390;2023-04-03T05:07:55;103057.34;;;0.70;73.66
76627;BME280;65519;53.230;10.390;2023-04-03T05:10:20;103056.94;;;0.75;73.84
76627;BME280;65519;53.230;10.390;2023-04-03T05:12:46;103057.34;;;0.70;73.95
76627;BME280;65519;53.230;10.390;2023-04-03T05:15:11;103062.03;;;0.68;73.72
76627;BME280;65519;53.230;10.390;2023-04-03T05:17:36;103066.28;;;0.61;72.99
76627;BME280;65519;53.230;10.390;2023-04-03T05:20:03;103066.56;;;0.58;74.21
76627;BME280;65519;53.230;10.390;2023-04-03T05:22:29;103062.31;;;0.65;74.07
76627;BME280;65519;53.230;10.390;2023-04-03T05:24:55;103066.31;;;0.52;74.66
76627;BME280;65519;53.230;10.390;2023-04-03T05:27:20;103062.03;;;0.68;74.15
76627;BME280;65519;53.230;10.390;2023-04-03T05:29:46;103059.19;;;0.70;74.19
76627;BME280;65519;53.230;10.390;2023-04-03T05:32:11;103064.84;;;0.67;74.23
76627;BME280;65519;53.230;10.390;2023-04-03T05:34:37;103075.16;;;0.71;74.43
76627;BME280;65519;53.230;10.390;2023-04-03T05:37:02;103070.47;;;0.83;74.61
76627;BME280;65519;53.230;10.390;2023-04-03T05:39:29;103073.88;;;0.76;74.06
76627;BME280;65519;53.230;10.390;2023-04-03T05:41:55;103083.13;;;0.91;74.29
76627;BME280;65519;53.230;10.390;2023-04-03T05:44:21;103081.22;;;0.73;74.47
76627;BME280;65519;53.230;10.390;2023-04-03T05:46:46;103080.06;;;0.86;74.32
76627;BME280;65519;53.230;10.390;2023-04-03T05:49:12;103089.41;;;0.82;74.04
76627;BME280;65519;53.230;10.390;2023-04-03T05:51:38;103084.31;;;0.79;74.51
76627;BME280;65519;53.230;10.390;2023-04-03T05:54:21;103097.84;;;0.87;74.42
76627;BME280;65519;53.230;10.390;2023-04-03T05:56:49;103090.81;;;0.86;74.67
76627;BME280;65519;53.230;10.390;2023-04-03T05:59:17;103092.31;;;0.88;74.85
76627;BME280;65519;53.230;10.390;2023-04-03T06:01:42;103102.81;;;0.82;75.62
76627;BME280;65519;53.230;10.390;2023-04-03T06:04:08;103102.66;;;0.93;74.85
76627;BME280;65519;53.230;10.390;2023-04-03T06:09:13;103100.44;;;1.16;74.04
76627;BME280;65519;53.230;10.390;2023-04-03T06:11:39;103097.88;;;1.14;74.84
76627;BME280;65519;53.230;10.390;2023-04-03T06:14:05;103097.41;;;1.28;73.89
76627;BME280;65519;53.230;10.390;2023-04-03T06:16:31;103093.47;;;1.23;75.41
76627;BME280;65519;53.230;10.390;2023-04-03T06:18:57;103102.72;;;1.38;75.55
76627;BME280;65519;53.230;10.390;2023-04-03T06:21:22;103103.97;;;1.43;74.98
76627;BME280;65519;53.230;10.390;2023-04-03T06:23:48;103104.03;;;1.52;74.52
76627;BME280;65519;53.230;10.390;2023-04-03T06:26:13;103103.75;;;1.55;73.35
76627;BME280;65519;53.230;10.390;2023-04-03T06:28:38;103104.88;;;1.62;72.99
76627;BME280;65519;53.230;10.390;2023-04-03T06:31:04;103107.63;;;1.70;72.85
76627;BME280;65519;53.230;10.390;2023-04-03T06:33:29;103110.38;;;1.60;72.41
76627;BME280;65519;53.230;10.390;2023-04-03T06:35:58;103115.63;;;1.79;72.51
76627;BME280;65519;53.230;10.390;2023-04-03T06:38:24;103110.09;;;1.81;72.50
76627;BME280;65519;53.230;10.390;2023-04-03T06:40:49;103111.47;;;1.85;71.62
76627;BME280;65519;53.230;10.390;2023-04-03T06:43:14;103119.31;;;1.96;71.46
76627;BME280;65519;53.230;10.390;2023-04-03T06:45:40;103125.88;;;1.94;71.89
76627;BME280;65519;53.230;10.390;2023-04-03T06:48:05;103121.13;;;2.05;70.65
76627;BME280;65519;53.230;10.390;2023-04-03T06:50:31;103117.84;;;2.19;70.44
76627;BME280;65519;53.230;10.390;2023-04-03T06:52:57;103118.94;;;2.27;70.85
76627;BME280;65519;53.230;10.390;2023-04-03T06:55:23;103126.94;;;2.18;70.29
76627;BME280;65519;53.230;10.390;2023-04-03T06:57:48;103128.09;;;2.34;69.97
76627;BME280;65519;53.230;10.390;2023-04-03T07:00:14;103132.84;;;2.40;70.87
76627;BME280;65519;53.230;10.390;2023-04-03T07:02:40;103129.75;;;2.52;70.18
76627;BME280;65519;53.230;10.390;2023-04-03T07:05:06;103123.94;;;2.65;70.19
76627;BME280;65519;53.230;10.390;2023-04-03T07:07:31;103126.13;;;2.87;68.89
76627;BME280;65519;53.230;10.390;2023-04-03T07:09:59;103127.72;;;2.98;66.52
76627;BME280;65519;53.230;10.390;2023-04-03T07:12:24;103118.19;;;3.12;66.28
76627;BME280;65519;53.230;10.390;2023-04-03T07:14:50;103129.44;;;3.07;65.97
76627;BME280;65519;53.230;10.390;2023-04-03T07:17:15;103134.09;;;3.23;66.24
76627;BME280;65519;53.230;10.390;2023-04-03T07:19:41;103128.19;;;3.27;66.23
76627;BME280;65519;53.230;10.390;2023-04-03T07:22:06;103127.06;;;3.38;64.70
76627;BME280;65519;53.230;10.390;2023-04-03T07:24:31;103132.03;;;3.59;64.38
76627;BME280;65519;53.230;10.390;2023-04-03T07:26:57;103128.38;;;3.76;62.26
76627;BME280;65519;53.230;10.390;2023-04-03T07:29:22;103131.41;;;3.81;62.59
76627;BME280;65519;53.230;10.390;2023-04-03T07:31:48;103130.09;;;3.93;61.03
76627;BME280;65519;53.230;10.390;2023-04-03T07:34:14;103134.50;;;4.02;60.69
76627;BME280;65519;53.230;10.390;2023-04-03T07:36:40;103140.09;;;4.09;60.58
76627;BME280;65519;53.230;10.390;2023-04-03T07:39:06;103140.25;;;4.16;59.58
76627;BME280;65519;53.230;10.390;2023-04-03T07:41:33;103138.09;;;4.27;58.60
76627;BME280;65519;53.230;10.390;2023-04-03T07:43:58;103137.75;;;4.38;59.45
76627;BME280;65519;53.230;10.390;2023-04-03T07:46:24;103135.72;;;4.32;58.36
76627;BME280;65519;53.230;10.390;2023-04-03T07:48:49;103150.06;;;4.41;57.75
76627;BME280;65519;53.230;10.390;2023-04-03T07:51:15;103144.84;;;4.48;57.04
76627;BME280;65519;53.230;10.390;2023-04-03T07:53:41;103140.09;;;4.58;57.31
76627;BME280;65519;53.230;10.390;2023-04-03T07:56:07;103144.00;;;4.63;56.73
76627;BME280;65519;53.230;10.390;2023-04-03T07:58:33;103141.78;;;4.75;56.54
76627;BME280;65519;53.230;10.390;2023-04-03T08:00:59;103145.50;;;4.82;56.42
76627;BME280;65519;53.230;10.390;2023-04-03T08:03:25;103141.75;;;4.91;55.02
76627;BME280;65519;53.230;10.390;2023-04-03T08:05:50;103141.09;;;4.97;54.69
76627;BME280;65519;53.230;10.390;2023-04-03T08:08:19;103137.34;;;5.06;55.98
76627;BME280;65519;53.230;10.390;2023-04-03T08:10:51;103133.25;;;5.10;54.53
76627;BME280;65519;53.230;10.390;2023-04-03T08:13:17;103141.00;;;5.22;54.58
76627;BME280;65519;53.230;10.390;2023-04-03T08:15:43;103135.22;;;5.33;54.63
76627;BME280;65519;53.230;10.390;2023-04-03T08:18:09;103136.22;;;5.40;55.03
76627;BME280;65519;53.230;10.390;2023-04-03T08:20:34;103143.75;;;5.53;53.25
76627;BME280;65519;53.230;10.390;2023-04-03T08:22:59;103138.53;;;5.51;53.61
76627;BME280;65519;53.230;10.390;2023-04-03T08:25:25;103138.97;;;5.63;54.15
76627;BME280;65519;53.230;10.390;2023-04-03T08:27:51;103147.38;;;5.76;52.78
76627;BME280;65519;53.230;10.390;2023-04-03T08:30:16;103135.88;;;5.74;52.22
76627;BME280;65519;53.230;10.390;2023-04-03T08:32:42;103136.06;;;5.72;51.99
76627;BME280;65519;53.230;10.390;2023-04-03T08:35:09;103135.34;;;5.78;52.17
76627;BME280;65519;53.230;10.390;2023-04-03T08:37:36;103131.56;;;5.87;53.27
76627;BME280;65519;53.230;10.390;2023-04-03T08:40:03;103125.44;;;6.02;52.58
76627;BME280;65519;53.230;10.390;2023-04-03T08:45:35;103131.03;;;6.23;52.57
76627;BME280;65519;53.230;10.390;2023-04-03T08:48:06;103130.97;;;6.31;51.88
76627;BME280;65519;53.230;10.390;2023-04-03T08:50:43;103123.16;;;6.36;50.67
76627;BME280;65519;53.230;10.390;2023-04-03T08:53:14;103129.03;;;6.40;50.55
76627;BME280;65519;53.230;10.390;2023-04-03T08:55:47;103129.69;;;6.42;49.77
76627;BME280;65519;53.230;10.390;2023-04-03T09:03:20;103125.13;;;6.42;48.01
76627;BME280;65519;53.230;10.390;2023-04-03T09:05:57;103131.44;;;6.57;49.33
76627;BME280;65519;53.230;10.390;2023-04-03T09:08:27;103121.16;;;6.68;48.56
76627;BME280;65519;53.230;10.390;2023-04-03T09:13:49;103118.59;;;6.89;48.10
76627;BME280;65519;53.230;10.390;2023-04-03T09:16:25;103112.13;;;6.90;47.90
76627;BME280;65519;53.230;10.390;2023-04-03T09:21:45;103107.53;;;7.05;45.32
76627;BME280;65519;53.230;10.390;2023-04-03T09:24:13;103112.91;;;7.13;44.82
76627;BME280;65519;53.230;10.390;2023-04-03T09:26:43;103108.97;;;7.01;43.27
76627;BME280;65519;53.230;10.390;2023-04-03T09:29:14;103113.81;;;7.20;44.06
76627;BME280;65519;53.230;10.390;2023-04-03T09:31:43;103118.03;;;7.23;44.74
76627;BME280;65519;53.230;10.390;2023-04-03T09:34:23;103113.25;;;7.40;43.82
76627;BME280;65519;53.230;10.390;2023-04-03T09:36:56;103112.84;;;7.57;43.61
76627;BME280;65519;53.230;10.390;2023-04-03T09:39:24;103106.66;;;7.63;43.60
76627;BME280;65519;53.230;10.390;2023-04-03T09:44:33;103105.69;;;7.71;43.80
76627;BME280;65519;53.230;10.390;2023-04-03T09:47:18;103110.50;;;7.90;45.61
76627;BME280;65519;53.230;10.390;2023-04-03T09:49:44;103101.13;;;7.93;43.80
76627;BME280;65519;53.230;10.390;2023-04-03T09:52:23;103095.91;;;8.13;43.26
76627;BME280;65519;53.230;10.390;2023-04-03T09:54:49;103097.66;;;8.20;43.23
76627;BME280;65519;53.230;10.390;2023-04-03T09:57:15;103093.97;;;8.28;43.11
76627;BME280;65519;53.230;10.390;2023-04-03T09:59:46;103093.97;;;8.28;44.17
76627;BME280;65519;53.230;10.390;2023-04-03T10:04:56;103081.81;;;8.45;42.39
76627;BME280;65519;53.230;10.390;2023-04-03T10:07:27;103083.38;;;8.54;42.64
76627;BME280;65519;53.230;10.390;2023-04-03T10:10:19;103081.53;;;8.61;41.64
76627;BME280;65519;53.230;10.390;2023-04-03T10:12:45;103076.75;;;8.63;41.83
76627;BME280;65519;53.230;10.390;2023-04-03T10:15:16;103073.59;;;8.66;40.73
76627;BME280;65519;53.230;10.390;2023-04-03T10:18:02;103075.28;;;8.67;39.93
76627;BME280;65519;53.230;10.390;2023-04-03T10:20:39;103070.13;;;8.79;41.58
76627;BME280;65519;53.230;10.390;2023-04-03T10:34:20;103063.47;;;8.82;37.46
76627;BME280;65519;53.230;10.390;2023-04-03T10:39:42;103056.91;;;8.69;39.99
76627;BME280;65519;53.230;10.390;2023-04-03T10:45:24;103055.97;;;8.56;40.06
76627;BME280;65519;53.230;10.390;2023-04-03T10:50:37;103046.34;;;8.88;38.59
76627;BME280;65519;53.230;10.390;2023-04-03T10:58:48;103041.69;;;8.47;38.68
76627;BME280;65519;53.230;10.390;2023-04-03T11:01:22;103035.31;;;8.61;40.95
76627;BME280;65519;53.230;10.390;2023-04-03T11:03:53;103031.69;;;8.89;39.84
76627;BME280;65519;53.230;10.390;2023-04-03T11:06:22;103031.19;;;9.06;38.11
76627;BME280;65519;53.230;10.390;2023-04-03T11:08:57;103030.53;;;9.65;41.34
76627;BME280;65519;53.230;10.390;2023-04-03T11:11:27;103017.38;;;9.95;38.51
76627;BME280;65519;53.230;10.390;2023-04-03T11:14:00;103014.50;;;10.36;37.09
76627;BME280;65519;53.230;10.390;2023-04-03T11:16:30;103000.63;;;10.71;37.79
76627;BME280;65519;53.230;10.390;2023-04-03T11:19:02;103009.19;;;10.74;35.51
76627;BME280;65519;53.230;10.390;2023-04-03T11:21:37;103003.16;;;10.52;34.56
76627;BME280;65519;53.230;10.390;2023-04-03T11:24:22;102999.53;;;10.78;36.94
76627;BME280;65519;53.230;10.390;2023-04-03T11:26:50;103005.44;;;10.62;36.66
76627;BME280;65519;53.230;10.390;2023-04-03T11:29:27;103017.84;;;10.12;37.51
76627;BME280;65519;53.230;10.390;2023-04-03T11:34:48;103009.34;;;9.41;38.21
76627;BME280;65519;53.230;10.390;2023-04-03T11:37:35;103014.34;;;9.44;37.20
76627;BME280;65519;53.230;10.390;2023-04-03T11:40:06;103003.03;;;9.34;36.40
76627;BME280;65519;53.230;10.390;2023-04-03T11:42:42;103003.03;;;9.34;36.75
76627;BME280;65519;53.230;10.390;2023-04-03T11:45:24;102999.19;;;9.15;37.29
76627;BME280;65519;53.230;10.390;2023-04-03T11:47:57;103009.09;;;8.88;36.58
76627;BME280;65519;53.230;10.390;2023-04-03T12:05:48;102982.72;;;9.36;39.06
76627;BME280;65519;53.230;10.390;2023-04-03T12:13:33;102981.00;;;8.74;38.97
76627;BME280;65519;53.230;10.390;2023-04-03T12:16:00;102984.75;;;9.14;39.90
76627;BME280;65519;53.230;10.390;2023-04-03T12:21:11;102975.63;;;8.88;39.70
76627;BME280;65519;53.230;10.390;2023-04-03T12:23:56;102976.34;;;8.62;39.74
76627;BME280;65519;53.230;10.390;2023-04-03T12:26:24;102973.84;;;8.67;39.50
76627;BME280;65519;53.230;10.390;2023-04-03T12:28:52;102967.50;;;8.53;39.91
76627;BME280;65519;53.230;10.390;2023-04-03T12:31:19;102967.47;;;8.88;41.79
76627;BME280;65519;53.230;10.390;2023-04-03T12:44:58;102955.19;;;8.29;41.74
76627;BME280;65519;53.230;10.390;2023-04-03T12:47:33;102966.41;;;8.20;42.11
76627;BME280;65519;53.230;10.390;2023-04-03T12:50:03;102952.53;;;8.08;41.60
76627;BME280;65519;53.230;10.390;2023-04-03T12:52:37;102952.41;;;7.95;41.43
76627;BME280;65519;53.230;10.390;2023-04-03T12:55:03;102959.69;;;8.16;42.22
76627;BME280;65519;53.230;10.390;2023-04-03T12:57:30;102954.88;;;8.39;41.90
76627;BME280;65519;53.230;10.390;2023-04-03T12:59:56;102955.78;;;8.53;41.05
76627;BME280;65519;53.230;10.390;2023-04-03T13:02:26;102956.50;;;9.15;41.51
76627;BME280;65519;53.230;10.390;2023-04-03T13:04:55;102955.25;;;9.18;41.01
76627;BME280;65519;53.230;10.390;2023-04-03T13:07:25;102943.03;;;8.94;39.64
76627;BME280;65519;53.230;10.390;2023-04-03T13:10:23;102949.31;;;8.95;38.72
76627;BME280;65519;53.230;10.390;2023-04-03T13:15:22;102942.13;;;9.55;38.34
76627;BME280;65519;53.230;10.390;2023-04-03T13:17:49;102942.69;;;10.62;36.85
76627;BME280;65519;53.230;10.390;2023-04-03T13:20:27;102929.72;;;13.12;31.27
76627;BME280;65519;53.230;10.390;2023-04-03T13:23:05;102921.06;;;18.26;25.47
76627;BME280;65519;53.230;10.390;2023-04-03T13:25:35;102903.41;;;20.71;20.16
76627;BME280;65519;53.230;10.390;2023-04-03T13:28:04;102917.50;;;20.85;19.85
76627;BME280;65519;53.230;10.390;2023-04-03T13:30:33;102904.94;;;22.39;18.16
76627;BME280;65519;53.230;10.390;2023-04-03T13:33:03;102905.88;;;18.75;21.66
76627;BME280;65519;53.230;10.390;2023-04-03T13:35:38;102909.75;;;22.04;19.70
76627;BME280;65519;53.230;10.390;2023-04-03T13:38:21;102909.19;;;18.25;23.74
76627;BME280;65519;53.230;10.390;2023-04-03T13:40:58;102916.00;;;14.31;28.23
76627;BME280;65519;53.230;10.390;2023-04-03T13:43:33;102905.88;;;18.75;21.63
76627;BME280;65519;53.230;10.390;2023-04-03T13:48:44;102920.47;;;17.81;22.16
76627;BME280;65519;53.230;10.390;2023-04-03T13:53:49;102922.09;;;16.58;24.77
76627;BME280;65519;53.230;10.390;2023-04-03T13:56:23;102907.22;;;16.37;24.74
76627;BME280;65519;53.230;10.390;2023-04-03T14:01:33;102899.63;;;15.27;25.10
76627;BME280;65519;53.230;10.390;2023-04-03T14:04:09;102896.09;;;15.15;26.09
76627;BME280;65519;53.230;10.390;2023-04-03T14:06:35;102901.84;;;14.85;26.49
76627;BME280;65519;53.230;10.390;2023-04-03T14:09:01;102904.41;;;15.04;25.63
76627;BME280;65519;53.230;10.390;2023-04-03T14:11:29;102906.38;;;14.91;26.23
76627;BME280;65519;53.230;10.390;2023-04-03T14:13:58;102893.03;;;14.72;26.28
76627;BME280;65519;53.230;10.390;2023-04-03T14:16:28;102895.06;;;14.76;27.30
76627;BME280;65519;53.230;10.390;2023-04-03T14:18:54;102895.00;;;14.59;27.15
76627;BME280;65519;53.230;10.390;2023-04-03T14:21:20;102893.22;;;15.22;27.12
76627;BME280;65519;53.230;10.390;2023-04-03T14:23:46;102899.31;;;14.20;27.50
76627;BME280;65519;53.230;10.390;2023-04-03T14:26:17;102882.19;;;14.77;27.51
76627;BME280;65519;53.230;10.390;2023-04-03T14:28:45;102882.50;;;14.17;26.89
76627;BME280;65519;53.230;10.390;2023-04-03T14:31:12;102884.59;;;14.61;25.95